Latest Weather Observations for Renmark Airport

IDS60801

Issued at 10:05 pm CST Wednesday 23 April 2014 (issued every 30 minutes, with the page automatically refreshed every 10 minutes)

About weather observations | Map of weather stations | Latest weather observations for SA | Other Formats
Station Details ID: 024048 Name: RENMARK AERO Lat: -34.20 Lon: 140.68 Height: 31.5 m
Data from the previous 72 hours. | See also: Recent months at Renmark Airport
Date/Time
CST
Temp
°C
App
Temp
°C
Dew
Point
Rel
Hum
%
Delta-T
°C
Wind Press
QNH
hPa
Press
MSL
hPa
Rain
since 9 am
mm
Dir
 
Spd
km/h
Gust
km/h
Spd
kts
Gust
kts
23/10:00pm 9.3 7.4 3.1 65 2.7 W 2 6 1 3 1014.9 - 0.0
23/09:30pm 9.7 8.2 3.0 63 2.9 WSW 0 6 0 3 1015.1 - 0.0
23/09:00pm 11.2 9.4 3.7 60 3.3 WSW 2 9 1 5 1015.2 1015.1 0.0
23/08:30pm 11.9 10.6 3.9 58 3.6 CALM 0 0 0 0 1015.3 - 0.0
23/08:00pm 12.8 11.5 4.0 55 4.0 CALM 0 0 0 0 1015.3 - 0.0
23/07:30pm 13.8 11.7 4.1 52 4.4 S 4 6 2 3 1015.4 - 0.0
23/07:00pm 15.2 13.9 4.0 47 5.2 CALM 0 0 0 0 1015.1 - 0.0
23/06:30pm 17.1 15.8 4.1 42 6.1 CALM 0 0 0 0 1014.6 - 0.0
23/06:00pm 18.0 15.5 3.5 38 6.8 WSW 6 7 3 4 1014.3 1014.2 0.0
23/05:30pm 19.7 16.6 3.4 34 7.7 WSW 9 13 5 7 1014.2 - 0.0
23/05:00pm 21.4 18.1 2.6 29 8.8 W 9 13 5 7 1014.1 - 0.0
23/04:30pm 21.6 18.2 1.8 27 9.2 W 9 13 5 7 1014.0 - 0.0
23/04:00pm 22.2 18.4 1.8 26 9.5 WSW 11 15 6 8 1014.1 - 0.0
23/03:30pm 22.4 18.6 2.0 26 9.6 WSW 11 15 6 8 1014.3 - 0.0
23/03:00pm 22.2 18.5 2.3 27 9.4 WSW 11 17 6 9 1014.5 1014.4 0.0
23/02:30pm 22.2 19.0 2.8 28 9.2 SW 9 15 5 8 1014.6 - 0.0
23/02:00pm 21.9 19.1 3.1 29 9.0 S 7 15 4 8 1014.6 - 0.0
23/01:30pm 21.4 18.2 3.1 30 8.7 S 9 17 5 9 1014.9 - 0.0
23/01:00pm 20.5 17.3 3.3 32 8.2 S 9 15 5 8 1015.4 - 0.0
23/12:30pm 20.2 16.8 3.9 34 7.8 S 11 20 6 11 1016.0 - 0.0
23/12:00pm 21.0 18.5 5.0 35 7.9 WNW 7 11 4 6 1016.6 1016.5 0.0
23/11:30am 19.7 17.3 5.4 39 7.0 SE 7 15 4 8 1017.3 - 0.0
23/11:00am 18.5 16.7 7.0 47 5.8 S 6 11 3 6 1017.7 - 0.0
23/10:30am 17.8 16.2 7.8 52 5.1 ENE 6 11 3 6 1017.9 - 0.0
23/10:00am 17.3 15.2 8.4 56 4.6 ESE 9 11 5 6 1018.1 - 0.0
23/09:30am 16.0 14.0 8.5 61 3.8 SE 9 11 5 6 1018.3 - 0.0
23/09:00am 14.9 13.2 8.4 65 3.3 ESE 7 9 4 5 1018.5 1018.4 0.0
23/08:30am 13.3 11.2 8.2 71 2.5 SE 9 13 5 7 1018.4 - 0.0
23/08:00am 11.2 9.5 8.2 82 1.5 S 7 11 4 6 1018.4 - 0.0
23/07:30am 8.1 6.5 8.1 100 0.0 WSW 6 7 3 4 1018.2 - 0.0
23/07:00am 6.2 4.0 6.2 100 0.0 WSW 7 11 4 6 1018.0 - 0.0
23/06:30am 5.9 3.6 5.5 97 0.2 WSW 7 9 4 5 1017.9 - 0.0
23/06:00am 6.4 5.3 5.0 91 0.6 CALM 0 0 0 0 1017.7 1017.6 0.0
23/05:30am 8.4 7.7 6.9 90 0.7 CALM 0 2 0 1 1017.5 - 0.0
23/05:00am 9.2 7.3 7.6 90 0.8 SSW 7 9 4 5 1017.6 - 0.0
23/04:30am 9.9 9.4 8.0 88 0.9 CALM 0 6 0 3 1017.6 - 0.0
23/04:00am 9.1 7.2 7.4 89 0.8 SW 7 11 4 6 1017.6 - 0.0
23/03:30am 9.0 7.1 7.5 90 0.7 SSW 7 11 4 6 1017.6 - 0.0
23/03:00am 9.0 7.0 7.1 88 0.9 SW 7 9 4 5 1017.8 1017.7 0.0
23/02:30am 10.6 9.6 7.5 81 1.5 SSW 2 7 1 4 1018.0 - 0.0
23/02:00am 11.6 11.1 7.9 78 1.8 CALM 0 0 0 0 1018.0 - 0.0
23/01:30am 12.0 10.2 7.9 76 2.0 SSW 7 11 4 6 1018.2 - 0.0
23/01:00am 12.7 10.5 8.0 73 2.3 S 9 13 5 7 1018.2 - 0.0
23/12:30am 13.3 10.4 8.2 71 2.5 S 13 19 7 10 1018.2 - 0.0
23/12:00am 13.9 10.9 7.9 67 3.0 S 13 19 7 10 1018.2 1018.1 0.0
 
Date/Time
CST
Temp
°C
App
Temp
°C
Dew
Point
Rel
Hum
%
Delta-T
°C
Wind Press
QNH
hPa
Press
MSL
hPa
Rain
since 9 am
mm
Dir
 
Spd
km/h
Gust
km/h
Spd
kts
Gust
kts
22/11:30pm 14.2 10.8 7.7 65 3.2 S 15 20 8 11 1018.0 - 0.0
22/11:00pm 14.6 11.1 7.4 62 3.6 S 15 20 8 11 1018.0 - 0.0
22/10:30pm 15.0 11.4 6.8 58 4.0 S 15 20 8 11 1018.3 - 0.0
22/10:00pm 15.4 11.3 6.4 55 4.4 S 17 22 9 12 1018.3 - 0.0
22/09:30pm 15.7 12.0 6.2 53 4.6 SSW 15 22 8 12 1018.2 - 0.0
22/09:00pm 15.8 12.1 6.5 54 4.5 SSW 15 22 8 12 1018.1 1018.0 0.0
22/08:30pm 16.3 12.7 6.7 53 4.7 SSW 15 22 8 12 1017.8 - 0.0
22/08:00pm 16.6 13.3 6.4 51 5.0 SSW 13 17 7 9 1017.8 - 0.0
22/07:30pm 17.3 14.0 6.5 49 5.3 SSW 13 19 7 10 1017.5 - 0.0
22/07:00pm 17.8 14.2 6.7 48 5.5 SSW 15 19 8 10 1017.3 - 0.0
22/06:30pm 18.4 14.9 7.2 48 5.6 SSW 15 22 8 12 1016.8 - 0.0
22/06:00pm 18.6 16.2 8.6 52 5.2 SSW 11 17 6 9 1016.5 1016.4 0.0
22/05:30pm 19.4 15.9 8.7 50 5.6 SSW 17 24 9 13 1016.0 - 0.0
22/05:00pm 19.9 16.1 9.2 50 5.7 SSW 19 26 10 14 1015.7 - 0.0
22/04:30pm 20.5 17.1 9.1 48 6.0 SSW 17 24 9 13 1015.7 - 0.0
22/04:00pm 20.9 16.9 9.2 47 6.2 SSW 20 28 11 15 1015.6 - 0.0
22/03:30pm 21.2 17.4 9.8 48 6.1 SW 20 28 11 15 1015.5 - 0.0
22/03:00pm 21.4 18.0 11.1 52 5.7 S 20 32 11 17 1015.4 1015.3 0.0
22/02:30pm 21.6 18.3 11.6 53 5.6 SSW 20 30 11 16 1015.2 - 0.0
22/02:00pm 22.0 18.3 11.4 51 5.9 SW 22 32 12 17 1015.0 - 0.0
22/01:30pm 21.9 19.2 11.6 52 5.8 SSW 17 22 9 12 1015.2 - 0.0
22/01:00pm 22.3 19.2 11.7 51 5.9 SW 19 26 10 14 1015.3 - 0.0
22/12:30pm 21.9 18.8 12.2 54 5.5 SSW 20 30 11 16 1015.6 - 0.0
22/12:00pm 21.8 18.4 12.6 56 5.2 SW 22 32 12 17 1015.8 1015.7 0.0
22/11:30am 21.5 18.3 13.2 59 4.8 SW 22 32 12 17 1015.8 - 0.0
22/11:00am 21.0 17.9 13.4 62 4.4 SSW 22 30 12 16 1015.9 - 0.0
22/10:30am 21.8 19.8 13.9 61 4.6 SSW 17 22 9 12 1015.6 - 0.0
22/10:00am 21.3 18.5 12.7 58 4.9 SW 19 26 10 14 1015.6 - 0.0
22/09:30am 21.5 18.0 10.3 49 6.1 SSW 19 28 10 15 1015.4 - 0.0
22/09:00am 21.3 17.0 7.2 40 7.2 W 19 24 10 13 1015.2 1015.1 0.0
22/08:30am 21.5 16.9 6.6 38 7.6 W 20 32 11 17 1015.0 - 0.0
22/08:00am 20.2 15.6 6.5 41 6.9 NW 20 26 11 14 1014.8 - 0.0
22/07:30am 18.7 15.0 6.5 45 6.1 NNW 15 20 8 11 1014.2 - 0.0
22/07:00am 18.0 15.2 6.8 48 5.6 NW 11 17 6 9 1014.0 - 0.0
22/06:30am 17.8 14.9 6.7 48 5.5 NW 11 13 6 7 1013.6 - 0.0
22/06:00am 16.3 14.0 7.3 55 4.5 N 9 13 5 7 1013.4 1013.3 0.0
22/05:30am 17.3 15.3 7.1 51 5.1 N 7 9 4 5 1013.1 - 0.0
22/05:00am 17.9 14.6 6.4 47 5.7 N 13 17 7 9 1012.7 - 0.0
22/04:30am 18.8 15.6 6.9 46 6.0 N 13 15 7 8 1012.7 - 0.0
22/04:00am 18.7 15.5 6.9 46 5.9 N 13 19 7 10 1012.6 - 0.0
22/03:30am 18.0 14.4 6.8 48 5.6 N 15 17 8 9 1012.4 - 0.0
22/03:00am 18.6 15.4 6.8 46 5.9 N 13 17 7 9 1012.5 1012.4 0.0
22/02:30am 17.9 14.7 6.7 48 5.6 N 13 17 7 9 1012.5 - 0.0
22/02:00am 17.8 14.3 7.0 49 5.4 N 15 17 8 9 1012.6 - 0.0
22/01:30am 19.7 16.4 6.4 42 6.7 N 13 17 7 9 1012.9 - 0.0
22/01:00am 20.3 16.6 6.3 40 7.0 N 15 20 8 11 1012.9 - 0.0
22/12:30am 20.8 17.1 6.4 39 7.3 N 15 20 8 11 1013.0 - 0.0
22/12:00am 21.0 16.6 6.5 39 7.3 N 19 24 10 13 1013.2 1013.1 0.0
 
Date/Time
CST
Temp
°C
App
Temp
°C
Dew
Point
Rel
Hum
%
Delta-T
°C
Wind Press
QNH
hPa
Press
MSL
hPa
Rain
since 9 am
mm
Dir
 
Spd
km/h
Gust
km/h
Spd
kts
Gust
kts
21/11:30pm 20.9 16.8 6.4 39 7.3 N 17 22 9 12 1013.3 - 0.0
21/11:00pm 21.4 17.4 6.5 38 7.6 NNW 17 20 9 11 1013.7 - 0.0
21/10:30pm 21.8 17.8 6.5 37 7.8 N 17 22 9 12 1013.8 - 0.0
21/10:00pm 22.2 17.8 6.4 36 8.0 N 19 22 10 12 1013.8 - 0.0
21/09:30pm 22.3 17.8 6.1 35 8.2 N 19 24 10 13 1014.0 - 0.0
21/09:00pm 22.2 18.1 6.0 35 8.2 N 17 20 9 11 1014.0 1013.9 0.0
21/08:30pm 23.0 18.8 5.9 33 8.7 N 17 22 9 12 1013.9 - 0.0
21/08:00pm 23.2 19.1 6.0 33 8.7 N 17 20 9 11 1013.9 - 0.0
21/07:30pm 23.0 19.7 6.3 34 8.5 N 13 17 7 9 1013.7 - 0.0
21/07:00pm 23.4 19.9 5.3 31 9.1 N 13 15 7 8 1013.6 - 0.0
21/06:30pm 24.3 20.6 4.6 28 9.8 N 13 15 7 8 1013.4 - 0.0
21/06:00pm 25.7 22.0 4.2 25 10.7 NW 13 15 7 8 1013.2 1013.1 0.0
21/05:30pm 27.1 22.9 3.6 22 11.7 NW 15 20 8 11 1013.1 - 0.0
21/05:00pm 27.8 22.7 2.8 20 12.4 NW 19 28 10 15 1012.9 - 0.0
21/04:30pm 28.3 22.2 2.5 19 12.7 NW 24 35 13 19 1012.8 - 0.0
21/04:00pm 29.1 22.2 2.4 18 13.2 NW 28 43 15 23 1012.8 - 0.0
21/03:30pm 29.1 22.7 3.1 19 13.0 NW 26 35 14 19 1012.8 - 0.0
21/03:00pm 29.0 22.3 3.8 20 12.8 NNW 28 39 15 21 1013.1 1013.0 0.0
21/02:30pm 29.1 22.1 3.9 20 12.8 NW 30 37 16 20 1013.2 - 0.0
21/02:00pm 28.5 22.0 4.7 22 12.2 NNW 28 41 15 22 1013.4 - 0.0
21/01:30pm 28.6 22.3 5.5 23 12.0 NNW 28 37 15 20 1013.8 - 0.0
21/01:00pm 27.6 21.6 5.2 24 11.5 NNW 26 35 14 19 1014.2 - 0.0
21/12:30pm 27.7 22.0 6.5 26 11.2 N 26 32 14 17 1014.7 - 0.0
21/12:00pm 26.1 19.9 6.2 28 10.3 N 28 37 15 20 1015.3 1015.2 0.0
21/11:30am 25.5 19.4 6.7 30 9.8 N 28 37 15 20 1015.9 - 0.0
21/11:00am 23.7 17.5 6.0 32 9.0 N 28 39 15 21 1016.4 - 0.0
21/10:30am 23.5 18.3 7.2 35 8.5 N 24 30 13 16 1016.7 - 0.0
21/10:00am 20.8 15.2 7.1 41 7.0 N 26 33 14 18 1017.1 - 0.0
21/09:30am 19.2 13.6 7.3 46 6.0 N 26 35 14 19 1017.2 - 0.0
21/09:00am 17.8 12.6 7.2 50 5.3 N 24 32 13 17 1017.4 1017.3 0.0
21/08:30am 16.5 11.7 7.2 54 4.6 NNE 22 30 12 16 1017.5 - 0.0
21/08:00am 14.5 9.2 6.6 59 3.8 N 24 30 13 16 1017.6 - 0.0
21/07:30am 12.5 8.8 6.5 67 2.9 NNE 15 19 8 10 1017.7 - 0.0
21/07:00am 12.0 8.6 6.1 67 2.8 N 13 15 7 8 1017.7 - 0.0
21/06:30am 11.9 8.1 6.0 67 2.8 NNE 15 19 8 10 1017.6 - 0.0
21/06:00am 12.3 8.1 5.9 65 3.0 N 17 20 9 11 1017.8 1017.7 0.0
21/05:30am 12.7 9.3 5.8 63 3.2 N 13 17 7 9 1018.0 - 0.0
21/05:00am 12.1 8.4 6.2 67 2.8 NE 15 20 8 11 1017.4 - 0.0
21/04:30am 12.6 8.8 6.0 64 3.1 NNE 15 19 8 10 1017.7 - 0.0
21/04:00am 12.8 9.5 6.2 64 3.1 NNE 13 17 7 9 1017.8 - 0.0
21/03:30am 12.5 8.5 6.5 67 2.9 NNE 17 20 9 11 1017.5 - 0.0
21/03:00am 11.4 8.2 6.9 74 2.1 NNE 13 15 7 8 1017.8 1017.7 0.0
21/02:30am 11.2 8.0 6.9 75 2.0 NE 13 15 7 8 1017.8 - 0.0
21/02:00am 11.5 8.3 7.0 74 2.2 NNE 13 15 7 8 1018.1 - 0.0
21/01:30am 9.9 7.7 5.5 74 2.0 N 6 9 3 5 1018.3 - 0.0
21/01:00am 11.6 8.5 7.1 74 2.2 NNE 13 15 7 8 1018.1 - 0.0
21/12:30am 10.0 7.9 5.6 74 2.0 NNE 6 9 3 5 1018.4 - 0.0
21/12:00am 9.5 8.3 4.7 72 2.1 CALM 0 0 0 0 1018.5 1018.4 0.0
 
Date/Time
CST
Temp
°C
App
Temp
°C
Dew
Point
Rel
Hum
%
Delta-T
°C
Wind Press
QNH
hPa
Press
MSL
hPa
Rain
since 9 am
mm
Dir
 
Spd
km/h
Gust
km/h
Spd
kts
Gust
kts
20/11:30pm 9.5 8.2 4.3 70 2.3 CALM 0 0 0 0 1018.8 - 0.0
20/11:00pm 9.8 8.6 4.4 69 2.4 CALM 0 0 0 0 1018.8 - 0.0
20/10:30pm 10.2 9.0 4.8 69 2.4 CALM 0 0 0 0 1019.0 - 0.0

Other Formats:

Comma delimited format used in spreadsheet applications
http://www.bom.gov.au/fwo/IDS60801/IDS60801.95687.axf

JavaScript Object Notation format (JSON) in row-major order
http://www.bom.gov.au/fwo/IDS60801/IDS60801.95687.json